createdAt,value
2023-01-04T00:03:10.828Z,3.07
2023-01-04T00:08:16.061Z,2.37
2023-01-04T00:13:22.050Z,2.70
2023-01-04T00:18:27.768Z,3.70
2023-01-04T00:23:32.903Z,4.50
2023-01-04T00:28:38.552Z,5.40
2023-01-04T00:33:43.869Z,3.30
2023-01-04T00:38:50.635Z,2.80
2023-01-04T00:43:55.658Z,3.37
2023-01-04T00:49:01.475Z,4.43
2023-01-04T00:54:08.994Z,6.20
2023-01-04T00:59:16.448Z,3.17
2023-01-04T01:04:24.440Z,6.03
2023-01-04T01:09:29.827Z,4.50
2023-01-04T01:14:34.908Z,2.00
2023-01-04T01:19:40.102Z,2.57
2023-01-04T01:24:45.303Z,3.17
2023-01-04T01:29:50.399Z,2.90
2023-01-04T01:34:55.712Z,2.87
2023-01-04T01:40:00.962Z,5.77
2023-01-04T01:45:10.882Z,3.77
2023-01-04T01:50:19.418Z,2.90
2023-01-04T01:55:25.302Z,3.90
2023-01-04T02:00:31.280Z,3.97
2023-01-04T02:05:38.084Z,2.67
2023-01-04T02:10:43.538Z,4.17
2023-01-04T02:16:03.391Z,3.83
2023-01-04T02:21:11.645Z,3.33
2023-01-04T02:26:51.428Z,2.50
2023-01-04T02:31:59.630Z,3.80
2023-01-04T02:37:08.382Z,2.00
2023-01-04T02:42:22.246Z,3.00
2023-01-04T02:47:55.988Z,2.17
2023-01-04T02:53:12.962Z,2.00
2023-01-04T02:58:28.503Z,2.53
2023-01-04T03:03:54.483Z,3.67
2023-01-04T03:09:11.772Z,2.00
2023-01-04T03:14:30.865Z,2.53
2023-01-04T03:19:49.320Z,2.73
2023-01-04T03:25:13.224Z,2.07
2023-01-04T03:30:38.107Z,4.00
2023-01-04T03:35:52.299Z,3.13
2023-01-04T03:41:20.998Z,3.40
2023-01-04T03:46:58.817Z,3.13
2023-01-04T03:52:06.404Z,2.43
2023-01-04T03:57:13.765Z,1.83
2023-01-04T04:02:22.453Z,3.23
2023-01-04T04:07:45.556Z,3.80
2023-01-04T04:12:52.485Z,3.03
2023-01-04T04:17:57.625Z,3.63
2023-01-04T04:23:02.901Z,3.93
2023-01-04T04:28:08.049Z,3.03
2023-01-04T04:33:13.245Z,4.27
2023-01-04T04:38:18.631Z,3.73
2023-01-04T04:43:23.755Z,2.70
2023-01-04T04:48:29.085Z,3.10
2023-01-04T04:53:34.283Z,3.60
2023-01-04T04:58:39.794Z,6.00
2023-01-04T05:03:45.646Z,5.10
2023-01-04T05:08:51.225Z,3.13
2023-01-04T05:13:56.338Z,4.97
2023-01-04T05:19:01.503Z,3.70
2023-01-04T05:24:07.467Z,5.47
2023-01-04T05:29:14.544Z,6.30
2023-01-04T05:34:22.310Z,4.67
2023-01-04T05:39:27.051Z,6.03
2023-01-04T05:44:32.281Z,5.87
2023-01-04T05:49:37.456Z,4.37
2023-01-04T05:54:42.650Z,10.17
2023-01-04T05:59:47.827Z,6.77
2023-01-04T06:04:58.833Z,4.50
2023-01-04T06:10:05.142Z,5.87
2023-01-04T06:15:13.349Z,5.37
2023-01-04T06:20:20.563Z,5.07
2023-01-04T06:25:25.620Z,4.83
2023-01-04T06:30:38.744Z,4.70
2023-01-04T06:35:50.375Z,4.47
2023-01-04T06:40:57.514Z,6.37
2023-01-04T06:46:05.102Z,3.77
2023-01-04T06:51:11.621Z,5.93
2023-01-04T06:56:17.137Z,5.30
2023-01-04T07:01:22.264Z,9.90
2023-01-04T07:06:27.926Z,7.10
2023-01-04T07:11:33.131Z,8.30
2023-01-04T07:16:38.477Z,6.40
2023-01-04T07:21:45.279Z,6.77
2023-01-04T07:26:50.420Z,5.57
2023-01-04T07:31:57.357Z,7.53
2023-01-04T07:37:02.699Z,6.50
2023-01-04T07:42:09.058Z,5.67
2023-01-04T07:47:14.847Z,6.73
2023-01-04T07:52:20.046Z,7.20
2023-01-04T07:57:25.164Z,9.80
2023-01-04T08:02:30.530Z,6.70
2023-01-04T08:07:36.240Z,9.23
2023-01-04T08:12:41.452Z,6.27
2023-01-04T08:17:46.786Z,8.83
2023-01-04T08:22:51.991Z,6.73
2023-01-04T08:27:58.677Z,8.37
2023-01-04T08:33:03.945Z,6.97
2023-01-04T08:38:55.674Z,7.93
2023-01-04T08:43:18.295Z,6.93
2023-01-04T08:48:24.794Z,8.77
2023-01-04T08:53:31.711Z,6.20
2023-01-04T08:58:38.633Z,8.93
2023-01-04T09:03:43.877Z,7.17
2023-01-04T09:08:49.515Z,7.57
2023-01-04T09:14:06.702Z,5.30
2023-01-04T09:19:06.761Z,7.43
2023-01-04T09:24:12.296Z,8.07
2023-01-04T09:29:19.331Z,7.60
2023-01-04T09:34:27.745Z,7.87
2023-01-04T09:39:34.607Z,6.97
2023-01-04T09:50:06.393Z,5.90
2023-01-04T09:55:39.768Z,6.47
2023-01-04T10:00:43.747Z,7.47
2023-01-04T10:05:48.667Z,10.07
2023-01-04T10:11:19.949Z,9.00
2023-01-04T10:17:01.834Z,8.03
2023-01-04T10:21:43.449Z,8.43
2023-01-04T10:26:51.226Z,13.13
2023-01-04T10:32:08.848Z,8.13
2023-01-04T10:37:25.537Z,6.63
2023-01-04T10:42:39.362Z,11.90
2023-01-04T10:48:06.983Z,9.60
2023-01-04T10:53:18.109Z,7.37
2023-01-04T10:58:37.950Z,7.37
2023-01-04T11:03:46.340Z,8.63
2023-01-04T11:09:04.088Z,10.50
2023-01-04T11:14:10.515Z,5.20
2023-01-04T11:19:16.165Z,7.07
2023-01-04T11:24:31.830Z,14.67
2023-01-04T11:29:35.057Z,11.63
2023-01-04T11:34:54.920Z,8.07
2023-01-04T11:40:21.385Z,4.27
2023-01-04T11:45:29.197Z,6.03
2023-01-04T11:50:46.396Z,5.83
2023-01-04T11:55:52.779Z,6.33
2023-01-04T12:01:00.231Z,5.00
2023-01-04T12:06:21.753Z,6.07
2023-01-04T12:11:38.888Z,8.10
2023-01-04T12:16:53.755Z,7.30
2023-01-04T12:22:02.159Z,7.10
2023-01-04T12:27:10.510Z,8.93
2023-01-04T12:32:19.811Z,6.23
2023-01-04T12:37:44.576Z,5.87
2023-01-04T12:42:53.843Z,5.93
2023-01-04T12:48:16.728Z,5.57
2023-01-04T12:53:53.090Z,4.70
2023-01-04T12:59:25.251Z,4.53
2023-01-04T13:04:33.058Z,4.37
2023-01-04T13:09:46.433Z,4.43
2023-01-04T13:14:51.259Z,5.03
2023-01-04T13:20:01.118Z,3.93
2023-01-04T13:25:09.661Z,4.60
2023-01-04T13:30:35.469Z,4.37
2023-01-04T13:35:41.103Z,3.93
2023-01-04T13:40:49.824Z,4.03
2023-01-04T13:52:06.330Z,3.80
2023-01-04T13:57:11.237Z,2.87
2023-01-04T14:02:24.253Z,3.30
2023-01-04T14:13:33.094Z,3.67
2023-01-04T14:18:42.764Z,2.77
2023-01-04T14:24:15.612Z,3.97
2023-01-04T14:29:35.025Z,3.20
2023-01-04T14:34:49.137Z,3.20
2023-01-04T14:40:04.401Z,3.47
2023-01-04T14:45:18.286Z,3.40
2023-01-04T14:50:23.962Z,2.40
2023-01-04T14:55:31.810Z,2.43
2023-01-04T15:00:42.838Z,3.00
2023-01-04T15:11:23.847Z,3.20
2023-01-04T15:16:38.860Z,2.43
2023-01-04T15:21:47.374Z,1.90
2023-01-04T15:27:03.627Z,2.13
2023-01-04T15:32:12.166Z,1.90
2023-01-04T15:37:23.946Z,2.17
2023-01-04T15:42:47.906Z,1.50
2023-01-04T15:47:55.419Z,2.17
2023-01-04T15:53:04.600Z,1.90
2023-01-04T15:58:14.313Z,2.60
2023-01-04T16:03:21.171Z,1.63
2023-01-04T16:08:35.546Z,2.50
2023-01-04T16:25:12.793Z,2.40
2023-01-04T16:30:38.297Z,1.80
2023-01-04T16:36:17.163Z,1.83
2023-01-04T16:41:28.095Z,2.03
2023-01-04T16:46:54.260Z,2.07
2023-01-04T16:52:01.255Z,1.80
2023-01-04T16:57:30.784Z,1.90
2023-01-04T17:02:39.481Z,1.97
2023-01-04T17:07:46.617Z,2.10
2023-01-04T17:12:51.921Z,1.93
2023-01-04T17:18:10.432Z,1.30
2023-01-04T17:23:39.193Z,2.50
2023-01-04T17:28:50.193Z,1.53
2023-01-04T17:33:57.537Z,1.50
2023-01-04T17:39:07.348Z,1.50
2023-01-04T17:44:37.311Z,1.53
2023-01-04T18:00:48.532Z,2.30
2023-01-04T18:06:24.942Z,1.43
2023-01-04T18:22:58.464Z,1.90
2023-01-04T18:28:05.123Z,1.83
2023-01-04T18:33:13.747Z,1.80
2023-01-04T18:38:22.864Z,1.80
2023-01-04T18:44:13.094Z,1.03
2023-01-04T18:54:36.059Z,2.17
2023-01-04T18:59:48.931Z,1.77
2023-01-04T19:05:03.516Z,1.83
2023-01-04T19:21:34.697Z,1.53
2023-01-04T19:26:43.062Z,1.20
2023-01-04T19:38:10.583Z,1.80
2023-01-04T19:43:37.162Z,2.37
2023-01-04T19:48:47.149Z,2.07
2023-01-04T19:53:53.635Z,1.53
2023-01-04T19:59:07.821Z,2.20
2023-01-04T20:10:14.398Z,2.03
2023-01-04T20:15:36.563Z,1.73
2023-01-04T20:20:59.592Z,1.87
2023-01-04T20:26:36.485Z,2.10
2023-01-04T20:31:51.091Z,1.40
2023-01-04T20:37:02.091Z,1.10
2023-01-04T20:42:58.865Z,1.67
2023-01-04T20:48:05.353Z,2.50
2023-01-04T20:53:19.131Z,6.83
2023-01-04T20:58:34.988Z,4.73
2023-01-04T21:04:01.187Z,1.40
2023-01-04T21:09:14.556Z,1.47
2023-01-04T21:20:10.838Z,1.57
2023-01-04T21:25:24.057Z,1.70
2023-01-04T21:36:27.967Z,1.80
2023-01-04T21:41:47.814Z,1.40
2023-01-04T21:47:02.049Z,1.60
2023-01-04T21:52:11.001Z,1.80
2023-01-04T22:03:04.421Z,1.90
2023-01-04T22:08:32.361Z,1.40
2023-01-04T22:14:15.498Z,1.83
2023-01-04T22:20:02.457Z,1.70
2023-01-04T22:25:18.087Z,1.60
2023-01-04T22:30:30.581Z,0.83
2023-01-04T22:36:02.304Z,1.30
2023-01-04T22:58:15.865Z,2.00
2023-01-04T23:03:25.311Z,1.17
2023-01-04T23:08:32.079Z,1.07
2023-01-04T23:13:39.624Z,1.03
2023-01-04T23:18:54.093Z,1.50
2023-01-04T23:29:33.299Z,1.07
2023-01-04T23:47:13.241Z,0.90
